Accueil
METAR-TAF:

METAR-TAF

Aéroports :

Aéroport de Paksé

Paksé, Laos

latitude: 15-08-02N, longitude: 105-46-55E, altitude: 107 m

Observation

Le bulletin a été fait il y a 49 minutes, à 12:00 UTC
Vent 2 kt de est
Température 34°C
Humidité 47%
Pression 1008 hPa
Visibilité: 7000 m
Quelques nuages à une hauteur de 2400 ft
Nuages épars à une hauteur de 20000 ft

METAR: VLPS 281200Z 09002KT 7000 FEW024 SCT200 34/21 Q1008 NOSIG

Heure: 19:49 (12:49 UTC)

Prévision

Le bulletin a été fait il y a 1 heure et 49 minutes, à 11:00 UTC
Prévision valable du 28 à 12 UTC au 29 à 12 UTC
Vent 4 kt de sud-est
Visibilité: 8000 m
Quelques nuages à une hauteur de 2300 ft
Quelques nuages à une hauteur de 20000 ft
Temporairement
du 28 à 18 UTC au 29 à 23 UTC
Visibilité: 4000 m
Quelques nuages à une hauteur de 2300 ft
brume

TAF: VLPS 281100Z 2812/2912 14004KT 8000 FEW023 FEW200 TEMPO 2818/2923 4000 BR FEW023

Observations et prévisions météorologiques de plus de 4000 aéroports (messages METAR et TAF).

Les stations disponibles sont représentées par des disques jaunes et rouges sur la carte.

Passer la souris dessus pour voir le nom de la station.

Cliquer dessus pour voir les observations et prévisions météorologiques.

Pour changer de carte: cliquez sur les boutons verts avec une croix noire pour zoomer, sur le bouton vert avec un tiret pour effectuer un zoom arrière, ou sur les flèches vertes pour les cartes adjacentes.


METAR-TAF: